Time;durP1;ratioP1;P1;durP2;ratioP2;P2;SDS_P1;SDS_P2;PMS_P1;PMS_P2;Temp;Humidity;BMP_temperature;BMP_pressure;BME280_temperature;BME280_humidity;BME280_pressure;Samples;Min_cycle;Max_cycle;Signal;HPM_P1;HPM_P2
2023/03/25 00:01:13;;;;;;;21.98;3.30;;;11.40;99.90;;;;;;4934437;29;20250;-75
2023/03/25 00:03:40;;;;;;;17.58;2.80;;;11.30;99.90;;;;;;4951103;29;20246;-75
2023/03/25 00:06:07;;;;;;;16.60;2.80;;;11.30;99.90;;;;;;4918846;29;20179;-74
2023/03/25 00:08:33;;;;;;;16.33;3.10;;;11.30;99.90;;;;;;4935620;29;20168;-74
2023/03/25 00:11:00;;;;;;;20.38;3.30;;;11.30;99.90;;;;;;4936264;29;20505;-74
2023/03/25 00:13:26;;;;;;;18.73;2.92;;;11.30;99.90;;;;;;4936507;29;20226;-76
2023/03/25 00:15:57;;;;;;;22.10;2.63;;;11.30;99.90;;;;;;4950605;29;20192;-75
2023/03/25 00:18:24;;;;;;;22.30;3.40;;;11.30;99.90;;;;;;4935028;29;20239;-76
2023/03/25 00:20:52;;;;;;;23.13;2.72;;;11.30;99.90;;;;;;4935687;29;20171;-74
2023/03/25 00:23:19;;;;;;;19.60;2.88;;;11.30;99.90;;;;;;4938710;29;20175;-74
2023/03/25 00:25:46;;;;;;;22.00;3.13;;;11.30;99.90;;;;;;4953959;29;20183;-75
2023/03/25 00:28:12;;;;;;;14.05;2.15;;;11.30;99.90;;;;;;4954294;29;20191;-74
2023/03/25 00:30:39;;;;;;;19.85;3.08;;;11.30;99.90;;;;;;4954140;29;20207;-75
2023/03/25 00:33:05;;;;;;;22.33;3.25;;;11.30;99.90;;;;;;4939768;29;20179;-76
2023/03/25 00:35:31;;;;;;;16.85;3.17;;;11.20;99.90;;;;;;4938990;29;20235;-75
2023/03/25 00:37:58;;;;;;;15.40;2.60;;;11.20;99.90;;;;;;4939558;29;20620;-75
2023/03/25 00:40:34;;;;;;;15.60;2.78;;;11.20;99.90;;;;;;4939221;29;20631;-76
2023/03/25 00:43:01;;;;;;;19.15;3.13;;;11.10;99.90;;;;;;4953753;29;20207;-75
2023/03/25 00:45:27;;;;;;;15.18;2.78;;;11.10;99.90;;;;;;4953818;29;20247;-75
2023/03/25 00:47:54;;;;;;;22.63;3.65;;;11.10;99.90;;;;;;4953659;28;20218;-74
2023/03/25 00:50:20;;;;;;;24.00;2.78;;;11.00;99.90;;;;;;4953687;29;20691;-75
2023/03/25 00:52:47;;;;;;;17.63;2.90;;;11.00;99.90;;;;;;4938961;29;20192;-75
2023/03/25 00:55:13;;;;;;;31.63;3.78;;;11.00;99.90;;;;;;4937606;29;20187;-76
2023/03/25 00:57:39;;;;;;;15.32;2.80;;;11.00;99.90;;;;;;4953437;29;20518;-74
2023/03/25 01:00:09;;;;;;;17.98;3.08;;;11.00;99.90;;;;;;4938964;29;20171;-75
2023/03/25 01:02:35;;;;;;;22.13;3.08;;;11.00;99.90;;;;;;4939069;29;20356;-75
2023/03/25 01:05:01;;;;;;;17.35;2.80;;;11.00;99.90;;;;;;4953527;29;20200;-75
2023/03/25 01:07:30;;;;;;;30.85;3.35;;;11.00;99.90;;;;;;4953185;29;20632;-76
2023/03/25 01:09:58;;;;;;;15.77;2.90;;;10.90;99.90;;;;;;4937867;29;20195;-77
2023/03/25 01:12:25;;;;;;;17.17;2.97;;;10.90;99.90;;;;;;4952958;29;20599;-75
2023/03/25 01:14:52;;;;;;;19.45;3.30;;;10.90;99.90;;;;;;4953082;29;20331;-76
2023/03/25 01:17:18;;;;;;;14.23;3.00;;;10.80;99.90;;;;;;4938301;29;20206;-75
2023/03/25 01:19:44;;;;;;;21.65;3.75;;;10.90;99.90;;;;;;4952681;29;20191;-75
2023/03/25 01:22:10;;;;;;;21.25;3.53;;;10.80;99.90;;;;;;4938668;29;20218;-75
2023/03/25 01:24:36;;;;;;;21.13;3.35;;;10.80;99.90;;;;;;4938036;29;20260;-74
2023/03/25 01:27:02;;;;;;;24.77;4.10;;;10.80;99.90;;;;;;4938206;29;20635;-75
2023/03/25 01:29:29;;;;;;;28.80;4.50;;;10.70;99.90;;;;;;4936979;29;20187;-74
2023/03/25 01:31:56;;;;;;;24.60;4.13;;;10.70;99.90;;;;;;4953492;29;20283;-74
2023/03/25 01:34:23;;;;;;;17.25;3.10;;;10.70;99.90;;;;;;4952446;28;20217;-74
2023/03/25 01:36:49;;;;;;;21.70;3.58;;;10.70;99.90;;;;;;4938156;29;20175;-75
2023/03/25 01:39:17;;;;;;;20.80;3.70;;;10.70;99.90;;;;;;4936677;29;20179;-75
2023/03/25 01:41:45;;;;;;;26.08;3.42;;;10.70;99.90;;;;;;4937815;29;20223;-76
2023/03/25 01:44:13;;;;;;;22.30;3.38;;;10.70;99.90;;;;;;4938013;29;20183;-75
2023/03/25 01:46:44;;;;;;;15.00;3.25;;;10.70;99.90;;;;;;4952713;29;20325;-76
2023/03/25 01:49:15;;;;;;;30.02;4.53;;;10.70;99.90;;;;;;4938514;29;20226;-73
2023/03/25 01:51:46;;;;;;;20.23;3.55;;;10.70;99.90;;;;;;4952637;29;20605;-75
2023/03/25 01:54:16;;;;;;;27.73;3.90;;;10.70;99.90;;;;;;4936830;29;20175;-73
2023/03/25 01:56:45;;;;;;;19.45;3.42;;;10.60;99.90;;;;;;4936415;29;20199;-77
2023/03/25 01:59:14;;;;;;;23.67;3.72;;;10.60;99.90;;;;;;4937765;28;20184;-74
2023/03/25 02:01:44;;;;;;;28.40;4.25;;;10.60;99.90;;;;;;4952126;29;20219;-75
2023/03/25 02:04:12;;;;;;;23.67;3.97;;;10.50;99.90;;;;;;4937368;29;20271;-74
2023/03/25 02:06:52;;;;;;;27.10;4.38;;;10.50;99.90;;;;;;4951830;29;20223;-74
2023/03/25 02:09:21;;;;;;;25.52;4.72;;;10.50;99.90;;;;;;4937998;29;20226;-76
2023/03/25 02:11:47;;;;;;;32.38;4.15;;;10.50;99.90;;;;;;4937354;29;20187;-75
2023/03/25 02:14:20;;;;;;;22.83;4.13;;;10.50;99.90;;;;;;4937981;29;20235;-75
2023/03/25 02:16:55;;;;;;;25.05;4.00;;;10.50;99.90;;;;;;4952656;29;20175;-75
2023/03/25 02:19:45;;;;;;;22.10;3.53;;;10.50;99.90;;;;;;4937534;29;20250;-73
2023/03/25 02:22:49;;;;;;;33.83;4.88;;;10.40;99.90;;;;;;4952035;29;20230;-75
2023/03/25 02:25:34;;;;;;;26.45;4.18;;;10.40;99.90;;;;;;4936819;29;20175;-74
2023/03/25 02:28:24;;;;;;;25.35;4.35;;;10.40;99.90;;;;;;4936838;29;20210;-73
2023/03/25 02:31:11;;;;;;;35.00;4.55;;;10.40;99.90;;;;;;4936504;29;20548;-75
2023/03/25 02:33:58;;;;;;;28.70;3.92;;;10.40;99.90;;;;;;4951630;29;20612;-75
2023/03/25 02:36:49;;;;;;;24.27;4.18;;;10.40;99.90;;;;;;4936462;29;20523;-76
2023/03/25 02:39:53;;;;;;;34.67;4.63;;;10.40;99.90;;;;;;4951530;29;20188;-75
2023/03/25 02:42:46;;;;;;;28.67;4.45;;;10.40;99.90;;;;;;4951450;29;20226;-76
2023/03/25 02:45:23;;;;;;;25.35;3.67;;;10.40;99.90;;;;;;4950648;28;20179;-75
2023/03/25 02:47:56;;;;;;;38.47;4.72;;;10.40;99.90;;;;;;4935703;29;20619;-75
2023/03/25 02:50:36;;;;;;;27.38;4.07;;;10.40;99.90;;;;;;4952160;29;20176;-75
2023/03/25 02:53:09;;;;;;;24.00;4.45;;;10.40;99.90;;;;;;4952053;28;20183;-75
2023/03/25 02:55:40;;;;;;;30.58;4.25;;;10.40;99.90;;;;;;4951387;29;20262;-75
2023/03/25 02:58:10;;;;;;;31.90;4.53;;;10.40;99.90;;;;;;4951524;29;20285;-74
2023/03/25 03:00:37;;;;;;;24.77;3.88;;;10.40;99.90;;;;;;4935486;29;20170;-73
2023/03/25 03:03:05;;;;;;;29.63;4.53;;;10.40;99.90;;;;;;4935291;29;20222;-75
2023/03/25 03:05:35;;;;;;;35.83;4.20;;;10.40;99.90;;;;;;4951182;28;20466;-74
2023/03/25 03:08:20;;;;;;;27.35;4.40;;;10.40;99.90;;;;;;4936725;29;20183;-74
2023/03/25 03:11:20;;;;;;;29.23;4.00;;;10.40;99.90;;;;;;4936548;29;20230;-74
2023/03/25 03:14:16;;;;;;;29.65;4.60;;;10.40;99.90;;;;;;4936217;29;20337;-75
2023/03/25 03:17:07;;;;;;;30.10;4.00;;;10.40;99.90;;;;;;4936795;29;20270;-76
2023/03/25 03:19:45;;;;;;;27.70;4.28;;;10.40;99.90;;;;;;4935975;29;20230;-74
2023/03/25 03:22:35;;;;;;;30.73;3.90;;;10.40;99.90;;;;;;4950733;29;20273;-76
2023/03/25 03:25:35;;;;;;;25.90;3.97;;;10.50;99.90;;;;;;4936606;29;20619;-74
2023/03/25 03:28:15;;;;;;;30.02;4.03;;;10.50;99.90;;;;;;4913953;29;20202;-75
2023/03/25 03:30:57;;;;;;;24.63;3.65;;;10.50;99.90;;;;;;4950724;29;20345;-75
2023/03/25 03:33:30;;;;;;;26.13;3.28;;;10.50;99.90;;;;;;4951034;29;20258;-74
2023/03/25 03:36:12;;;;;;;29.42;4.13;;;10.40;99.90;;;;;;4936245;29;20167;-74
2023/03/25 03:38:47;;;;;;;32.13;3.92;;;10.50;99.90;;;;;;4935991;29;20317;-75
2023/03/25 03:41:20;;;;;;;28.58;4.05;;;10.50;99.90;;;;;;4936352;29;20263;-74
2023/03/25 03:44:02;;;;;;;27.00;4.22;;;10.40;99.90;;;;;;4935646;29;20187;-75
2023/03/25 03:46:33;;;;;;;26.83;4.20;;;10.40;99.90;;;;;;4935681;29;20168;-74
2023/03/25 03:49:01;;;;;;;24.85;3.60;;;10.50;99.90;;;;;;4936724;29;20189;-74
2023/03/25 03:51:35;;;;;;;24.17;4.20;;;10.50;99.90;;;;;;4935851;29;20206;-74
2023/03/25 03:54:34;;;;;;;25.58;3.53;;;10.40;99.90;;;;;;4935931;29;20222;-74
2023/03/25 03:57:20;;;;;;;29.90;4.25;;;10.40;99.90;;;;;;4938379;29;20218;-75
2023/03/25 04:00:02;;;;;;;34.30;4.05;;;10.40;99.90;;;;;;4939882;29;20171;-76
2023/03/25 04:02:43;;;;;;;24.42;4.30;;;10.40;99.90;;;;;;4939326;29;20215;-75
2023/03/25 04:05:15;;;;;;;30.30;4.30;;;10.40;99.90;;;;;;4938608;29;20631;-75
2023/03/25 04:07:59;;;;;;;25.23;4.22;;;10.40;99.90;;;;;;4939382;29;20639;-73
2023/03/25 04:11:03;;;;;;;27.48;3.80;;;10.40;99.90;;;;;;4940057;29;20175;-75
2023/03/25 04:13:35;;;;;;;25.38;4.25;;;10.30;99.90;;;;;;4939773;29;20241;-74
2023/03/25 04:16:01;;;;;;;27.83;3.47;;;10.30;99.90;;;;;;4954133;29;20164;-76
2023/03/25 04:18:27;;;;;;;36.70;4.75;;;10.30;99.90;;;;;;4939327;29;20190;-74
2023/03/25 04:20:57;;;;;;;24.05;4.00;;;10.30;99.90;;;;;;4954004;29;20528;-74
2023/03/25 04:23:23;;;;;;;29.25;4.30;;;10.30;99.90;;;;;;4938152;29;20208;-74
2023/03/25 04:25:51;;;;;;;31.17;4.05;;;10.30;99.90;;;;;;4938770;29;20175;-74
2023/03/25 04:28:18;;;;;;;22.55;3.75;;;10.30;99.90;;;;;;4939576;29;20207;-74
2023/03/25 04:30:44;;;;;;;36.22;4.47;;;10.30;99.90;;;;;;4921999;29;20191;-74
2023/03/25 04:33:11;;;;;;;30.50;4.28;;;10.30;99.90;;;;;;4939120;29;20183;-74
2023/03/25 04:35:39;;;;;;;33.13;4.30;;;10.30;99.90;;;;;;4939259;29;20554;-74
2023/03/25 04:38:06;;;;;;;27.00;4.32;;;10.30;99.90;;;;;;4939563;29;20207;-75
2023/03/25 04:40:32;;;;;;;29.90;4.28;;;10.30;99.90;;;;;;4954506;29;20534;-75
2023/03/25 04:42:58;;;;;;;23.77;4.18;;;10.30;99.90;;;;;;4938655;29;20249;-75
2023/03/25 04:45:24;;;;;;;25.75;3.88;;;10.30;99.90;;;;;;4939283;29;20586;-75
2023/03/25 04:47:53;;;;;;;37.88;4.68;;;10.30;99.90;;;;;;4938921;29;20183;-74
2023/03/25 04:50:27;;;;;;;29.05;4.22;;;10.30;99.90;;;;;;4937543;29;20198;-74
2023/03/25 04:52:56;;;;;;;30.35;4.35;;;10.30;99.90;;;;;;4938673;29;20583;-75
2023/03/25 04:55:24;;;;;;;27.17;4.20;;;10.30;99.90;;;;;;4953483;29;20607;-75
2023/03/25 04:57:53;;;;;;;25.50;4.00;;;10.30;99.90;;;;;;4938979;29;20190;-74
2023/03/25 05:00:23;;;;;;;23.98;3.70;;;10.20;99.90;;;;;;4938520;29;20222;-75
2023/03/25 05:02:52;;;;;;;25.70;4.50;;;10.30;99.90;;;;;;4938570;29;20240;-75
2023/03/25 05:05:21;;;;;;;27.73;4.40;;;10.30;99.90;;;;;;4938980;29;20175;-75
2023/03/25 05:07:48;;;;;;;26.27;3.92;;;10.30;99.90;;;;;;4938291;29;20183;-74
2023/03/25 05:10:16;;;;;;;23.10;3.70;;;10.30;99.90;;;;;;4953650;29;20216;-75
2023/03/25 05:12:42;;;;;;;25.38;4.03;;;10.20;99.90;;;;;;4938120;29;20227;-74
2023/03/25 05:15:10;;;;;;;29.00;4.57;;;10.20;99.90;;;;;;4938273;29;20264;-76
2023/03/25 05:17:36;;;;;;;25.85;3.83;;;10.20;99.90;;;;;;4938899;29;20202;-73
2023/03/25 05:20:05;;;;;;;25.98;4.15;;;10.20;99.90;;;;;;4937815;29;20654;-75
2023/03/25 05:22:31;;;;;;;25.55;4.80;;;10.20;99.90;;;;;;4938454;29;20211;-75
2023/03/25 05:24:57;;;;;;;25.00;4.00;;;10.30;99.90;;;;;;4938030;29;20184;-76
2023/03/25 05:27:23;;;;;;;26.90;4.65;;;10.30;99.90;;;;;;4936908;29;20180;-75
2023/03/25 05:29:49;;;;;;;34.17;4.55;;;10.30;99.90;;;;;;4920901;29;20179;-75
2023/03/25 05:32:17;;;;;;;33.70;5.00;;;10.20;99.90;;;;;;4938012;29;20286;-75
2023/03/25 05:34:45;;;;;;;22.65;3.78;;;10.30;99.90;;;;;;4953607;29;20186;-74
2023/03/25 05:37:12;;;;;;;22.73;4.07;;;10.30;99.90;;;;;;4936716;29;20648;-75
2023/03/25 05:39:38;;;;;;;25.52;3.95;;;10.30;99.90;;;;;;4952899;29;20187;-74
2023/03/25 05:42:04;;;;;;;30.05;4.65;;;10.20;99.90;;;;;;4937629;29;20636;-75
2023/03/25 05:44:30;;;;;;;22.48;3.97;;;10.30;99.90;;;;;;4938370;29;20596;-75
2023/03/25 05:46:59;;;;;;;29.42;4.80;;;10.20;99.90;;;;;;4936581;29;20719;-75
2023/03/25 05:49:26;;;;;;;37.25;4.63;;;10.30;99.90;;;;;;4936730;29;20192;-75
2023/03/25 05:51:53;;;;;;;37.58;4.38;;;10.20;99.90;;;;;;4952978;29;20195;-75
2023/03/25 05:54:18;;;;;;;31.35;4.40;;;10.20;99.90;;;;;;4952598;29;20596;-75
2023/03/25 05:56:44;;;;;;;36.28;5.18;;;10.30;99.90;;;;;;4937662;29;20179;-75
2023/03/25 05:59:10;;;;;;;25.67;4.43;;;10.30;99.90;;;;;;4937426;29;20179;-74
2023/03/25 06:01:42;;;;;;;22.70;3.90;;;10.30;99.90;;;;;;4936961;29;20214;-74
2023/03/25 06:04:08;;;;;;;28.90;4.45;;;10.20;99.90;;;;;;4937528;29;20175;-73
2023/03/25 06:06:34;;;;;;;25.95;3.95;;;10.20;99.90;;;;;;4936463;29;20175;-77
2023/03/25 06:09:01;;;;;;;26.75;4.50;;;10.20;99.90;;;;;;4937537;29;20274;-74
2023/03/25 06:11:27;;;;;;;36.05;5.03;;;10.20;99.90;;;;;;4938002;29;20656;-74
2023/03/25 06:13:52;;;;;;;30.88;4.35;;;10.20;99.90;;;;;;4937003;29;20231;-73
2023/03/25 06:16:28;;;;;;;29.90;4.65;;;10.20;99.90;;;;;;4936832;29;20179;-73
2023/03/25 06:18:58;;;;;;;26.55;4.28;;;10.20;99.90;;;;;;4936187;29;20171;-73
2023/03/25 06:21:25;;;;;;;29.73;3.90;;;10.20;99.90;;;;;;4937715;28;20211;-74
2023/03/25 06:23:52;;;;;;;26.38;4.22;;;10.20;99.90;;;;;;4937364;29;20194;-73
2023/03/25 06:26:21;;;;;;;28.10;4.50;;;10.30;99.90;;;;;;4951692;29;20239;-73
2023/03/25 06:28:47;;;;;;;31.42;4.25;;;10.20;99.90;;;;;;4936809;29;20211;-75
2023/03/25 06:31:15;;;;;;;27.98;3.80;;;10.30;99.90;;;;;;4937076;29;20207;-74
2023/03/25 06:33:46;;;;;;;28.73;3.80;;;10.30;99.90;;;;;;4936703;29;20175;-75
2023/03/25 06:36:14;;;;;;;31.63;4.47;;;10.30;99.90;;;;;;4936626;29;20226;-76
2023/03/25 06:38:40;;;;;;;24.30;4.40;;;10.30;99.90;;;;;;4937228;29;20231;-74
2023/03/25 06:41:12;;;;;;;27.85;4.20;;;10.30;99.90;;;;;;4936215;28;20191;-74
2023/03/25 06:43:40;;;;;;;24.35;4.13;;;10.20;99.90;;;;;;4936226;29;20628;-74
2023/03/25 06:46:08;;;;;;;25.35;4.07;;;10.20;99.90;;;;;;4936571;29;20202;-76
2023/03/25 06:48:54;;;;;;;30.33;4.30;;;10.20;99.90;;;;;;4935443;29;20678;-74
2023/03/25 06:51:21;;;;;;;30.42;4.30;;;10.10;99.90;;;;;;4935132;29;20180;-74
2023/03/25 06:53:47;;;;;;;26.25;3.83;;;10.10;99.90;;;;;;4936264;29;20651;-74
2023/03/25 06:56:13;;;;;;;33.22;4.47;;;10.10;99.90;;;;;;4951089;29;20179;-74
2023/03/25 06:58:40;;;;;;;31.40;5.03;;;10.10;99.90;;;;;;4951187;29;20183;-74
2023/03/25 07:01:06;;;;;;;29.13;4.60;;;10.10;99.90;;;;;;4951372;29;20599;-74
2023/03/25 07:03:35;;;;;;;28.95;3.95;;;10.10;99.90;;;;;;4935271;29;20179;-74
2023/03/25 07:06:01;;;;;;;30.83;4.80;;;10.20;99.90;;;;;;4936133;29;20670;-73
2023/03/25 07:08:27;;;;;;;32.40;4.95;;;10.20;99.90;;;;;;4936195;29;20179;-74
2023/03/25 07:10:52;;;;;;;23.88;4.05;;;10.20;99.90;;;;;;4936127;29;20191;-74
2023/03/25 07:13:18;;;;;;;28.48;3.53;;;10.20;99.90;;;;;;4936458;29;20230;-77
2023/03/25 07:15:44;;;;;;;22.55;3.67;;;10.30;99.90;;;;;;4951384;29;20197;-74
2023/03/25 07:18:10;;;;;;;24.20;3.85;;;10.30;99.90;;;;;;4935783;29;20195;-75
2023/03/25 07:20:36;;;;;;;18.08;3.45;;;10.30;99.90;;;;;;4936825;29;20179;-74
2023/03/25 07:23:01;;;;;;;26.48;3.90;;;10.40;99.90;;;;;;4936618;29;20246;-74
2023/03/25 07:25:27;;;;;;;22.40;3.90;;;10.40;99.90;;;;;;4936000;29;20274;-79
2023/03/25 07:27:53;;;;;;;22.83;3.83;;;10.40;99.90;;;;;;4934928;29;20628;-74
2023/03/25 07:30:19;;;;;;;14.85;2.97;;;10.40;99.90;;;;;;4934724;29;20183;-74
2023/03/25 07:32:45;;;;;;;21.33;3.10;;;10.40;99.90;;;;;;4950779;29;20238;-74
2023/03/25 07:35:11;;;;;;;18.02;3.13;;;10.40;99.90;;;;;;4950996;29;20195;-73
2023/03/25 07:37:37;;;;;;;17.98;3.17;;;10.40;99.90;;;;;;4936577;29;20176;-73
2023/03/25 07:40:03;;;;;;;21.52;3.20;;;10.30;99.90;;;;;;4950878;29;20198;-73
2023/03/25 07:42:29;;;;;;;22.98;3.80;;;10.30;99.90;;;;;;4936141;29;20222;-74
2023/03/25 07:45:13;;;;;;;21.60;3.55;;;10.30;99.90;;;;;;4935558;29;20329;-73
2023/03/25 07:47:41;;;;;;;20.63;3.75;;;10.30;99.90;;;;;;4934785;29;20519;-73
2023/03/25 07:50:07;;;;;;;27.05;3.97;;;10.30;99.90;;;;;;4935823;29;20191;-73
2023/03/25 07:52:33;;;;;;;26.17;4.13;;;10.30;99.90;;;;;;4950574;29;20559;-75
2023/03/25 07:54:59;;;;;;;17.70;3.28;;;10.20;99.90;;;;;;4935492;29;20270;-74
2023/03/25 07:57:25;;;;;;;14.10;3.38;;;10.20;99.90;;;;;;4951787;29;20273;-75
2023/03/25 07:59:51;;;;;;;22.27;3.63;;;10.20;99.90;;;;;;4934523;29;20277;-74
2023/03/25 08:02:17;;;;;;;15.05;2.95;;;10.20;99.90;;;;;;4950048;29;20246;-73
2023/03/25 08:04:42;;;;;;;13.23;2.97;;;10.10;99.90;;;;;;4935434;29;20175;-73
2023/03/25 08:07:08;;;;;;;26.90;3.28;;;10.10;99.90;;;;;;4936089;29;20198;-73
2023/03/25 08:09:34;;;;;;;17.10;3.17;;;10.10;99.90;;;;;;4936598;29;20221;-74
2023/03/25 08:12:00;;;;;;;22.00;3.10;;;10.10;99.90;;;;;;4935261;29;20191;-74
2023/03/25 08:14:26;;;;;;;19.65;3.30;;;10.10;99.90;;;;;;4936186;29;20184;-75
2023/03/25 08:16:52;;;;;;;21.20;3.28;;;10.10;99.90;;;;;;4935531;29;20577;-74
2023/03/25 08:19:18;;;;;;;15.48;2.55;;;10.10;99.90;;;;;;4934660;29;20588;-75
2023/03/25 08:21:43;;;;;;;18.73;2.92;;;10.00;99.90;;;;;;4934789;29;20647;-78
2023/03/25 08:24:10;;;;;;;17.63;2.80;;;10.10;99.90;;;;;;4934366;29;20179;-74
2023/03/25 08:26:37;;;;;;;15.85;3.33;;;10.10;99.90;;;;;;4935761;28;20184;-75
2023/03/25 08:29:03;;;;;;;21.73;3.30;;;10.00;99.90;;;;;;4935574;29;20175;-74
2023/03/25 08:31:31;;;;;;;20.85;2.80;;;10.00;99.90;;;;;;4935830;29;20183;-74
2023/03/25 08:34:01;;;;;;;18.42;2.90;;;10.00;99.90;;;;;;4935727;29;20188;-76
2023/03/25 08:36:27;;;;;;;11.73;2.67;;;10.00;99.90;;;;;;4934360;29;20183;-75
2023/03/25 08:38:53;;;;;;;22.10;3.08;;;10.00;99.90;;;;;;4936033;29;20191;-76
2023/03/25 08:41:19;;;;;;;22.42;3.70;;;10.00;99.90;;;;;;4935361;29;20195;-75
2023/03/25 08:43:45;;;;;;;15.18;2.88;;;10.10;99.90;;;;;;4937087;29;20168;-74
2023/03/25 08:46:12;;;;;;;17.27;3.20;;;10.00;99.90;;;;;;4938973;29;20183;-74
2023/03/25 08:48:38;;;;;;;17.38;3.28;;;10.10;99.90;;;;;;4939168;29;20262;-75
2023/03/25 08:51:05;;;;;;;21.75;3.28;;;10.10;99.90;;;;;;4938803;29;20648;-79
2023/03/25 08:53:30;;;;;;;21.08;3.00;;;10.10;99.90;;;;;;4922224;28;20531;-79
2023/03/25 08:55:57;;;;;;;15.13;3.20;;;10.10;99.90;;;;;;4953531;29;20188;-75
2023/03/25 08:58:24;;;;;;;23.00;3.40;;;10.10;99.90;;;;;;4938658;29;20234;-74
2023/03/25 09:00:53;;;;;;;20.35;3.33;;;10.10;99.90;;;;;;4953592;29;20176;-74
2023/03/25 09:03:20;;;;;;;19.05;3.78;;;10.00;99.90;;;;;;4938572;29;20227;-75
2023/03/25 09:05:47;;;;;;;21.05;3.42;;;10.10;99.90;;;;;;4938481;29;20187;-77
2023/03/25 09:08:13;;;;;;;18.88;3.30;;;10.10;99.90;;;;;;4937340;29;20183;-76
2023/03/25 09:10:39;;;;;;;19.05;2.97;;;10.10;99.90;;;;;;4937354;29;20280;-74
2023/03/25 09:13:05;;;;;;;19.75;3.53;;;10.10;99.90;;;;;;4938667;29;20682;-74
2023/03/25 09:15:30;;;;;;;18.00;2.95;;;10.20;99.90;;;;;;4953370;29;20187;-75
2023/03/25 09:17:56;;;;;;;20.02;3.30;;;10.30;99.90;;;;;;4938857;29;20187;-74
2023/03/25 09:20:22;;;;;;;25.92;3.90;;;10.40;99.90;;;;;;4938749;29;20546;-75
2023/03/25 09:22:48;;;;;;;23.40;3.47;;;10.70;99.90;;;;;;4938126;29;20745;-75
2023/03/25 09:25:14;;;;;;;24.65;3.28;;;11.10;99.90;;;;;;4939136;29;20179;-79
2023/03/25 09:27:40;;;;;;;17.08;3.00;;;11.50;99.90;;;;;;4954413;29;20637;-77
2023/03/25 09:30:07;;;;;;;17.23;3.13;;;11.80;99.90;;;;;;4937132;29;20183;-77
2023/03/25 09:32:33;;;;;;;17.55;3.05;;;12.00;99.90;;;;;;4936844;29;20282;-74
2023/03/25 09:34:59;;;;;;;23.27;3.75;;;12.10;99.90;;;;;;4938519;29;20545;-75
2023/03/25 09:37:25;;;;;;;16.48;2.97;;;12.10;99.90;;;;;;4953379;29;20183;-76
2023/03/25 09:39:50;;;;;;;19.73;2.83;;;12.10;99.90;;;;;;4938066;29;20184;-74
2023/03/25 09:42:44;;;;;;;21.73;2.90;;;12.00;99.90;;;;;;4939067;29;20211;-76
2023/03/25 09:45:28;;;;;;;17.77;3.17;;;11.90;99.90;;;;;;4938584;29;20179;-76
2023/03/25 09:48:26;;;;;;;18.77;2.85;;;11.80;99.90;;;;;;4938498;29;20254;-78
2023/03/25 09:50:52;;;;;;;13.73;2.45;;;11.80;99.90;;;;;;4937064;29;20266;-73
2023/03/25 09:53:35;;;;;;;21.30;2.70;;;11.70;99.90;;;;;;4937946;29;20239;-74
2023/03/25 09:56:03;;;;;;;15.23;2.75;;;11.70;99.90;;;;;;4938643;29;20210;-75
2023/03/25 09:58:34;;;;;;;15.25;2.80;;;11.60;99.90;;;;;;4952166;29;20188;-74
2023/03/25 10:01:07;;;;;;;17.42;2.97;;;11.70;99.90;;;;;;4952539;29;20182;-74
2023/03/25 10:04:15;;;;;;;15.80;2.72;;;11.70;99.90;;;;;;4952834;29;20226;-73
2023/03/25 10:07:07;;;;;;;13.05;2.58;;;11.70;99.90;;;;;;4952997;29;20667;-74
2023/03/25 10:09:44;;;;;;;14.30;2.53;;;11.70;99.90;;;;;;4952060;28;20612;-74
2023/03/25 10:12:32;;;;;;;12.70;2.60;;;11.70;99.90;;;;;;4952314;29;20191;-81
2023/03/25 10:15:43;;;;;;;21.25;2.85;;;11.60;99.90;;;;;;4936669;29;20180;-81
2023/03/25 10:18:20;;;;;;;19.60;3.33;;;11.50;99.90;;;;;;4915869;29;20206;-78
2023/03/25 10:20:51;;;;;;;11.60;2.40;;;11.50;99.90;;;;;;4934967;29;20199;-78
2023/03/25 10:23:16;;;;;;;18.95;2.92;;;11.50;99.90;;;;;;4936623;29;20211;-73
2023/03/25 10:25:46;;;;;;;18.45;3.33;;;11.50;99.90;;;;;;4937101;29;20187;-74
2023/03/25 10:28:18;;;;;;;15.57;2.97;;;11.40;99.90;;;;;;4937413;29;20179;-79
2023/03/25 10:30:50;;;;;;;19.77;3.00;;;11.40;99.90;;;;;;4936075;29;20646;-75
2023/03/25 10:33:52;;;;;;;13.95;2.60;;;11.30;99.90;;;;;;4936918;29;20167;-80
2023/03/25 10:36:20;;;;;;;20.42;3.30;;;11.30;99.90;;;;;;4931463;29;20250;-84
2023/03/25 10:38:50;;;;;;;20.38;3.28;;;11.30;99.90;;;;;;4920409;29;20211;-77
2023/03/25 10:41:29;;;;;;;18.38;3.60;;;11.40;99.90;;;;;;4935981;29;20507;-78
2023/03/25 10:43:55;;;;;;;17.15;3.00;;;11.40;99.90;;;;;;4936695;29;20186;-80
2023/03/25 10:46:27;;;;;;;19.10;2.92;;;11.40;99.90;;;;;;4937454;29;20175;-78
2023/03/25 10:48:53;;;;;;;21.02;3.65;;;11.40;99.90;;;;;;4951823;29;20647;-83
2023/03/25 10:51:25;;;;;;;18.20;3.05;;;11.40;99.90;;;;;;4935838;29;20189;-80
2023/03/25 10:53:51;;;;;;;13.45;2.60;;;11.40;99.90;;;;;;4936258;29;20267;-77
2023/03/25 10:56:33;;;;;;;20.20;3.33;;;11.50;99.90;;;;;;4937192;29;20274;-77
2023/03/25 10:59:10;;;;;;;26.92;3.35;;;11.50;99.90;;;;;;4951495;29;20666;-74
2023/03/25 11:01:39;;;;;;;22.73;3.33;;;11.40;99.90;;;;;;4951213;29;20253;-75
2023/03/25 11:04:09;;;;;;;21.63;3.63;;;11.40;99.90;;;;;;4936339;29;20282;-73
2023/03/25 11:06:40;;;;;;;17.50;3.20;;;11.40;99.90;;;;;;4935423;29;20237;-80
2023/03/25 11:09:14;;;;;;;18.20;3.30;;;11.40;99.90;;;;;;4936425;29;20250;-73
2023/03/25 11:11:41;;;;;;;19.10;3.28;;;11.40;99.90;;;;;;4936898;29;20250;-73
2023/03/25 11:14:08;;;;;;;21.45;3.42;;;11.50;99.90;;;;;;4936123;29;20251;-73
2023/03/25 11:16:40;;;;;;;15.25;2.80;;;11.50;99.90;;;;;;4935945;29;20187;-74
2023/03/25 11:19:06;;;;;;;17.33;2.92;;;11.50;99.90;;;;;;4936552;29;20175;-73
2023/03/25 11:21:34;;;;;;;19.30;3.20;;;11.60;99.90;;;;;;4934705;29;20195;-81
2023/03/25 11:24:00;;;;;;;16.15;2.90;;;11.60;99.90;;;;;;4936414;29;20188;-73
2023/03/25 11:26:37;;;;;;;20.40;3.22;;;11.60;99.90;;;;;;4936547;29;20227;-73
2023/03/25 11:29:15;;;;;;;15.13;3.08;;;11.60;99.90;;;;;;4936215;29;20218;-73
2023/03/25 11:31:41;;;;;;;15.90;3.08;;;11.70;99.90;;;;;;4934832;29;20278;-74
2023/03/25 11:34:13;;;;;;;18.05;3.17;;;11.70;99.90;;;;;;4936251;29;20222;-73
2023/03/25 11:36:51;;;;;;;16.27;3.03;;;11.70;99.90;;;;;;4950641;29;20192;-75
2023/03/25 11:39:23;;;;;;;17.42;3.35;;;11.80;99.90;;;;;;4936346;29;20175;-73
2023/03/25 11:41:49;;;;;;;18.38;3.45;;;11.80;99.90;;;;;;4935747;29;20210;-81
2023/03/25 11:44:30;;;;;;;15.13;2.85;;;11.80;99.90;;;;;;4936016;29;20183;-73
2023/03/25 11:47:01;;;;;;;15.35;2.65;;;11.80;99.90;;;;;;4935873;29;20183;-75
2023/03/25 11:49:28;;;;;;;12.13;2.75;;;11.80;99.90;;;;;;4950771;29;20226;-74
2023/03/25 11:52:42;;;;;;;16.50;3.22;;;11.80;99.90;;;;;;4936396;29;20267;-73
2023/03/25 11:55:30;;;;;;;14.45;2.50;;;11.80;99.90;;;;;;4926422;29;20286;-76
2023/03/25 11:57:58;;;;;;;20.98;2.63;;;11.90;99.90;;;;;;4934674;29;20175;-75
2023/03/25 12:00:38;;;;;;;17.73;3.15;;;11.90;99.90;;;;;;4935904;29;20183;-75
2023/03/25 12:03:13;;;;;;;18.17;3.08;;;11.90;99.90;;;;;;4935491;29;20210;-74
2023/03/25 12:05:40;;;;;;;15.50;2.42;;;11.90;99.90;;;;;;4934842;28;20187;-74
2023/03/25 12:08:10;;;;;;;13.90;2.70;;;12.00;99.90;;;;;;4935509;29;20183;-74
2023/03/25 12:10:53;;;;;;;17.08;2.65;;;11.90;99.90;;;;;;4935721;29;20239;-77
2023/03/25 12:13:50;;;;;;;11.50;2.97;;;12.00;99.90;;;;;;4935728;29;20274;-74
2023/03/25 12:16:48;;;;;;;15.38;2.40;;;12.00;99.90;;;;;;4935317;29;20205;-74
2023/03/25 12:19:29;;;;;;;14.60;3.08;;;12.10;99.90;;;;;;4939273;29;20179;-73
2023/03/25 12:22:20;;;;;;;12.07;2.65;;;12.20;99.90;;;;;;4939992;29;20624;-74
2023/03/25 12:25:08;;;;;;;14.30;2.38;;;12.20;99.90;;;;;;4954171;29;20266;-73
2023/03/25 12:27:52;;;;;;;17.50;2.67;;;12.30;99.90;;;;;;4929537;29;20210;-73
2023/03/25 12:30:51;;;;;;;16.30;3.00;;;12.20;99.90;;;;;;4938855;29;20182;-74
2023/03/25 12:33:38;;;;;;;15.93;2.67;;;12.30;99.90;;;;;;4938427;29;20175;-77
2023/03/25 12:36:38;;;;;;;16.30;3.05;;;12.30;99.90;;;;;;4939078;29;20565;-74
2023/03/25 12:39:35;;;;;;;14.38;2.33;;;12.40;99.90;;;;;;4931379;29;20607;-74
2023/03/25 12:42:23;;;;;;;19.25;2.97;;;12.50;99.90;;;;;;4937759;29;20294;-74
2023/03/25 12:45:34;;;;;;;13.45;2.72;;;12.60;99.90;;;;;;4938950;29;20195;-77
2023/03/25 12:48:21;;;;;;;11.00;2.60;;;12.60;99.90;;;;;;4938923;29;20198;-73
2023/03/25 12:51:11;;;;;;;13.20;2.25;;;12.70;99.90;;;;;;4939360;29;20226;-73
2023/03/25 12:53:55;;;;;;;12.65;2.42;;;12.70;99.90;;;;;;4938668;29;20227;-74
2023/03/25 12:56:59;;;;;;;11.80;2.42;;;12.60;99.90;;;;;;4939199;29;20174;-78
2023/03/25 12:59:35;;;;;;;12.93;2.70;;;12.50;99.90;;;;;;4938629;29;20168;-74
2023/03/25 13:02:27;;;;;;;11.68;2.40;;;12.40;99.90;;;;;;4938492;29;20198;-73